createdAt,value
2022-07-31T00:02:23.495Z,2.80
2022-07-31T00:05:27.040Z,2.50
2022-07-31T00:08:30.240Z,3.30
2022-07-31T00:11:33.453Z,3.40
2022-07-31T00:14:37.995Z,2.93
2022-07-31T00:17:41.919Z,4.20
2022-07-31T00:20:45.248Z,3.77
2022-07-31T00:23:48.357Z,3.40
2022-07-31T00:26:52.868Z,3.17
2022-07-31T00:29:57.492Z,2.83
2022-07-31T00:33:00.633Z,3.20
2022-07-31T00:36:03.762Z,2.80
2022-07-31T00:39:07.037Z,4.70
2022-07-31T00:42:18.549Z,3.40
2022-07-31T00:45:28.997Z,2.80
2022-07-31T00:48:32.408Z,3.47
2022-07-31T00:51:36.680Z,3.10
2022-07-31T00:54:40.453Z,3.10
2022-07-31T00:57:43.687Z,3.57
2022-07-31T01:00:48.464Z,3.67
2022-07-31T01:03:51.809Z,3.97
2022-07-31T01:06:55.380Z,3.13
2022-07-31T01:10:00.353Z,3.27
2022-07-31T01:13:08.458Z,3.13
2022-07-31T01:16:15.513Z,3.10
2022-07-31T01:19:42.231Z,3.50
2022-07-31T01:23:23.143Z,3.80
2022-07-31T01:26:38.625Z,3.70
2022-07-31T01:29:47.092Z,3.43
2022-07-31T01:32:52.162Z,3.17
2022-07-31T01:35:59.249Z,3.17
2022-07-31T01:39:03.650Z,3.70
2022-07-31T01:42:09.592Z,3.50
2022-07-31T01:45:16.222Z,3.23
2022-07-31T01:48:19.870Z,4.43
2022-07-31T01:51:23.957Z,3.77
2022-07-31T01:54:28.723Z,3.70
2022-07-31T01:57:33.962Z,3.77
2022-07-31T02:00:39.276Z,3.33
2022-07-31T02:03:45.390Z,4.10
2022-07-31T02:06:50.057Z,3.20
2022-07-31T02:09:59.055Z,4.00
2022-07-31T02:13:03.623Z,3.93
2022-07-31T02:16:08.990Z,4.30
2022-07-31T02:19:13.580Z,3.80
2022-07-31T02:22:16.899Z,4.13
2022-07-31T02:25:20.276Z,3.73
2022-07-31T02:28:24.308Z,4.00
2022-07-31T02:31:31.694Z,3.40
2022-07-31T02:34:36.848Z,3.80
2022-07-31T02:37:41.203Z,3.27
2022-07-31T02:40:44.944Z,4.27
2022-07-31T02:43:48.971Z,3.90
2022-07-31T02:46:53.823Z,3.90
2022-07-31T02:49:58.085Z,4.13
2022-07-31T02:53:01.452Z,3.53
2022-07-31T02:56:05.763Z,4.00
2022-07-31T02:59:08.867Z,4.33
2022-07-31T03:02:13.433Z,3.77
2022-07-31T03:05:16.940Z,4.10
2022-07-31T03:08:20.097Z,4.40
2022-07-31T03:11:23.265Z,5.00
2022-07-31T03:14:32.700Z,4.97
2022-07-31T03:17:40.988Z,4.30
2022-07-31T03:20:45.078Z,3.50
2022-07-31T03:23:49.333Z,4.63
2022-07-31T03:26:52.461Z,4.57
2022-07-31T03:29:55.605Z,5.33
2022-07-31T03:33:02.955Z,4.70
2022-07-31T03:36:06.308Z,4.70
2022-07-31T03:39:09.708Z,4.33
2022-07-31T03:42:18.686Z,4.40
2022-07-31T03:45:22.847Z,3.50
2022-07-31T03:48:28.148Z,4.37
2022-07-31T03:51:32.923Z,4.70
2022-07-31T03:54:36.037Z,4.27
2022-07-31T03:57:40.030Z,4.10
2022-07-31T04:00:45.487Z,4.07
2022-07-31T04:03:59.118Z,4.57
2022-07-31T04:07:02.316Z,4.30
2022-07-31T04:10:05.835Z,4.90
2022-07-31T04:13:09.013Z,4.63
2022-07-31T04:16:12.360Z,4.77
2022-07-31T04:19:16.850Z,4.90
2022-07-31T04:22:19.936Z,4.27
2022-07-31T04:25:23.193Z,4.50
2022-07-31T04:28:26.472Z,4.93
2022-07-31T04:31:30.095Z,4.60
2022-07-31T04:34:34.621Z,4.60
2022-07-31T04:37:38.651Z,5.60
2022-07-31T04:40:51.615Z,5.47
2022-07-31T04:43:54.865Z,4.60
2022-07-31T04:47:00.712Z,4.73
2022-07-31T04:50:05.991Z,4.90
2022-07-31T04:53:09.128Z,5.40
2022-07-31T04:56:29.779Z,5.07
2022-07-31T04:59:59.555Z,4.80
2022-07-31T05:02:56.477Z,5.80
2022-07-31T05:06:10.581Z,5.07
2022-07-31T05:09:18.997Z,4.27
2022-07-31T05:12:22.652Z,5.13
2022-07-31T05:15:25.817Z,4.13
2022-07-31T05:18:28.916Z,5.17
2022-07-31T05:21:33.565Z,4.57
2022-07-31T05:24:51.558Z,5.00
2022-07-31T05:27:54.699Z,4.93
2022-07-31T05:30:58.563Z,4.67
2022-07-31T05:34:01.694Z,4.77
2022-07-31T05:37:06.191Z,4.97
2022-07-31T05:40:10.809Z,5.03
2022-07-31T05:43:14.164Z,4.90
2022-07-31T05:46:17.596Z,5.00
2022-07-31T05:49:22.331Z,5.03
2022-07-31T05:52:26.996Z,5.80
2022-07-31T05:55:30.173Z,4.90
2022-07-31T05:58:34.065Z,6.20
2022-07-31T06:01:37.335Z,4.70
2022-07-31T06:04:40.585Z,4.93
2022-07-31T06:07:51.270Z,5.83
2022-07-31T06:10:55.250Z,4.93
2022-07-31T06:13:58.367Z,5.27
2022-07-31T06:17:05.329Z,5.53
2022-07-31T06:20:09.810Z,5.10
2022-07-31T06:23:14.660Z,5.47
2022-07-31T06:26:31.050Z,5.13
2022-07-31T06:29:41.900Z,5.07
2022-07-31T06:32:45.614Z,5.47
2022-07-31T06:35:48.751Z,5.30
2022-07-31T06:38:53.237Z,5.17
2022-07-31T06:41:56.325Z,5.30
2022-07-31T06:44:59.452Z,5.40
2022-07-31T06:48:02.547Z,5.67
2022-07-31T06:51:29.684Z,5.70
2022-07-31T06:54:30.690Z,5.70
2022-07-31T06:57:33.815Z,5.10
2022-07-31T07:00:36.912Z,5.30
2022-07-31T07:03:39.991Z,5.97
2022-07-31T07:06:43.151Z,5.53
2022-07-31T07:09:47.612Z,5.20
2022-07-31T07:12:50.762Z,5.10
2022-07-31T07:15:54.464Z,5.03
2022-07-31T07:18:57.592Z,5.27
2022-07-31T07:22:00.885Z,4.57
2022-07-31T07:25:05.925Z,5.20
2022-07-31T07:28:13.527Z,5.17
2022-07-31T07:31:18.465Z,4.43
2022-07-31T07:34:21.522Z,4.73
2022-07-31T07:37:24.705Z,5.70
2022-07-31T07:40:29.256Z,4.97
2022-07-31T07:43:32.341Z,4.73
2022-07-31T07:46:36.195Z,4.73
2022-07-31T07:49:39.339Z,5.47
2022-07-31T07:52:44.032Z,4.13
2022-07-31T07:55:48.625Z,5.23
2022-07-31T07:58:51.911Z,3.80
2022-07-31T08:01:55.075Z,4.47
2022-07-31T08:04:58.209Z,4.10
2022-07-31T08:08:01.366Z,4.80
2022-07-31T08:11:05.886Z,3.83
2022-07-31T08:14:09.001Z,3.83
2022-07-31T08:17:13.897Z,3.10
2022-07-31T08:20:16.999Z,4.10
2022-07-31T08:23:20.116Z,3.73
2022-07-31T08:26:27.442Z,3.53
2022-07-31T08:29:31.618Z,3.58
2022-07-31T08:32:40.224Z,3.35
2022-07-31T08:35:44.774Z,3.50
2022-07-31T08:38:53.723Z,2.63
2022-07-31T08:41:58.223Z,3.40
2022-07-31T08:45:01.331Z,3.58
2022-07-31T08:48:06.421Z,3.78
2022-07-31T08:51:13.102Z,3.60
2022-07-31T08:54:16.440Z,3.45
2022-07-31T08:57:21.368Z,3.33
2022-07-31T09:00:24.588Z,3.78
2022-07-31T09:03:28.052Z,3.63
2022-07-31T09:06:31.302Z,3.72
2022-07-31T09:09:45.337Z,3.03
2022-07-31T09:12:56.761Z,3.85
2022-07-31T09:16:00.433Z,3.58
2022-07-31T09:19:51.051Z,4.43
2022-07-31T09:22:31.078Z,4.68
2022-07-31T09:25:34.284Z,5.22
2022-07-31T09:28:40.785Z,4.07
2022-07-31T09:31:43.862Z,4.00
2022-07-31T09:34:48.177Z,4.13
2022-07-31T09:37:51.398Z,3.25
2022-07-31T09:40:57.035Z,3.70
2022-07-31T09:44:10.602Z,3.27
2022-07-31T09:47:24.439Z,3.40
2022-07-31T09:50:27.669Z,4.33
2022-07-31T09:53:43.526Z,4.10
2022-07-31T09:56:49.815Z,4.10
2022-07-31T09:59:54.353Z,4.27
2022-07-31T10:02:59.187Z,3.40
2022-07-31T10:06:02.912Z,3.70
2022-07-31T10:09:07.431Z,4.10
2022-07-31T10:12:16.589Z,3.50
2022-07-31T10:15:21.917Z,4.10
2022-07-31T10:18:35.704Z,3.75
2022-07-31T10:21:42.677Z,4.53
2022-07-31T10:24:49.695Z,3.50
2022-07-31T10:27:54.127Z,3.60
2022-07-31T10:30:59.202Z,3.30
2022-07-31T10:34:02.700Z,2.93
2022-07-31T10:37:12.924Z,3.13
2022-07-31T10:40:27.755Z,3.10
2022-07-31T10:43:42.966Z,2.80
2022-07-31T10:46:47.468Z,2.67
2022-07-31T10:49:51.041Z,3.00
2022-07-31T10:53:00.223Z,3.35
2022-07-31T10:56:04.632Z,2.77
2022-07-31T10:59:07.814Z,2.90
2022-07-31T11:02:15.660Z,2.77
2022-07-31T11:05:22.947Z,2.78
2022-07-31T11:08:26.784Z,2.55
2022-07-31T11:11:33.755Z,2.67
2022-07-31T11:14:39.564Z,2.50
2022-07-31T11:18:21.121Z,2.58
2022-07-31T11:21:35.906Z,2.60
2022-07-31T11:24:33.203Z,2.75
2022-07-31T11:27:36.457Z,3.20
2022-07-31T11:30:52.555Z,2.53
2022-07-31T11:33:57.262Z,2.53
2022-07-31T11:37:00.394Z,2.80
2022-07-31T11:40:07.384Z,3.08
2022-07-31T11:43:25.671Z,2.38
2022-07-31T11:46:32.035Z,2.22
2022-07-31T11:49:44.125Z,2.53
2022-07-31T11:53:02.590Z,2.28
2022-07-31T11:56:06.067Z,2.10
2022-07-31T11:59:09.273Z,2.30
2022-07-31T12:02:32.552Z,2.20
2022-07-31T12:05:45.822Z,1.80
2022-07-31T12:08:49.588Z,2.38
2022-07-31T12:11:52.943Z,2.33
2022-07-31T12:14:56.120Z,2.10
2022-07-31T12:18:02.591Z,2.10
2022-07-31T12:21:07.155Z,1.80
2022-07-31T12:24:14.564Z,2.40
2022-07-31T12:27:18.955Z,2.10
2022-07-31T12:30:29.651Z,2.42
2022-07-31T12:33:42.160Z,2.30
2022-07-31T12:36:46.805Z,2.08
2022-07-31T12:40:00.549Z,2.17
2022-07-31T12:43:04.548Z,2.25
2022-07-31T12:46:07.735Z,2.35
2022-07-31T12:49:11.299Z,2.03
2022-07-31T12:52:15.919Z,1.80
2022-07-31T12:55:19.663Z,1.90
2022-07-31T12:58:22.809Z,1.98
2022-07-31T13:01:25.939Z,2.30
2022-07-31T13:04:29.108Z,2.60
2022-07-31T13:07:33.622Z,1.80
2022-07-31T13:10:37.184Z,1.80
2022-07-31T13:13:40.344Z,2.08
2022-07-31T13:16:43.506Z,1.88
2022-07-31T13:19:46.633Z,2.08
2022-07-31T13:22:51.186Z,2.28
2022-07-31T13:25:54.492Z,2.00
2022-07-31T13:28:57.612Z,1.73
2022-07-31T13:32:00.781Z,2.08
2022-07-31T13:35:24.237Z,2.42
2022-07-31T13:38:28.605Z,2.10
2022-07-31T13:41:34.274Z,2.37
2022-07-31T13:44:37.537Z,2.23
2022-07-31T13:47:50.993Z,2.47
2022-07-31T13:50:55.276Z,2.23
2022-07-31T13:53:59.764Z,2.50
2022-07-31T13:57:02.915Z,2.07
2022-07-31T14:00:07.808Z,2.30
2022-07-31T14:03:12.175Z,3.10
2022-07-31T14:06:18.437Z,2.73
2022-07-31T14:09:26.341Z,2.00
2022-07-31T14:12:29.485Z,2.03
2022-07-31T14:15:32.730Z,2.20
2022-07-31T14:18:35.832Z,2.47
2022-07-31T14:21:39.010Z,2.60
2022-07-31T14:24:54.683Z,2.07
2022-07-31T14:27:57.808Z,2.70
2022-07-31T14:31:00.946Z,2.00
2022-07-31T14:34:05.099Z,2.50
2022-07-31T14:37:08.386Z,2.50
2022-07-31T14:40:14.181Z,2.40
2022-07-31T14:43:17.293Z,2.47
2022-07-31T14:46:20.423Z,2.23
2022-07-31T14:49:23.598Z,2.40
2022-07-31T14:52:27.204Z,2.50
2022-07-31T14:55:31.773Z,2.40
2022-07-31T14:58:58.650Z,2.45
2022-07-31T15:01:57.997Z,2.30
2022-07-31T15:06:40.892Z,2.70
2022-07-31T15:08:24.250Z,2.80
2022-07-31T15:11:58.413Z,3.17
2022-07-31T15:14:52.136Z,2.73
2022-07-31T15:17:55.266Z,3.13
2022-07-31T15:20:58.410Z,3.10
2022-07-31T15:24:01.583Z,2.60
2022-07-31T15:27:06.395Z,3.90
2022-07-31T15:30:10.955Z,3.10
2022-07-31T15:33:14.161Z,3.13
2022-07-31T15:36:17.253Z,3.17
2022-07-31T15:39:20.387Z,3.20
2022-07-31T15:42:24.913Z,2.90
2022-07-31T15:45:28.412Z,3.33
2022-07-31T15:48:31.542Z,3.70
2022-07-31T15:51:34.710Z,3.40
2022-07-31T15:54:37.838Z,3.40
2022-07-31T15:57:42.528Z,2.93
2022-07-31T16:00:45.795Z,2.93
2022-07-31T16:03:53.074Z,2.70
2022-07-31T16:06:56.512Z,3.40
2022-07-31T16:10:15.961Z,3.07
2022-07-31T16:13:21.543Z,2.87
2022-07-31T16:16:24.947Z,2.90
2022-07-31T16:19:28.186Z,3.27
2022-07-31T16:22:34.239Z,3.37
2022-07-31T16:25:37.538Z,2.83
2022-07-31T16:28:42.033Z,3.07
2022-07-31T16:31:45.308Z,3.07
2022-07-31T16:34:52.273Z,3.20
2022-07-31T16:37:56.858Z,3.20
2022-07-31T16:40:59.960Z,2.93
2022-07-31T16:44:04.889Z,3.00
2022-07-31T16:47:08.700Z,3.27
2022-07-31T16:50:12.133Z,2.90
2022-07-31T16:54:11.338Z,2.90
2022-07-31T16:56:38.602Z,3.10
2022-07-31T16:59:56.971Z,3.17
2022-07-31T17:03:01.065Z,3.33
2022-07-31T17:06:04.739Z,2.80
2022-07-31T17:09:15.801Z,2.80
2022-07-31T17:12:21.473Z,3.30
2022-07-31T17:15:26.164Z,3.30
2022-07-31T17:18:29.349Z,3.70
2022-07-31T17:21:32.492Z,3.20
2022-07-31T17:24:37.394Z,3.33
2022-07-31T17:27:40.663Z,3.50
2022-07-31T17:30:46.089Z,3.73
2022-07-31T17:33:59.652Z,2.60
2022-07-31T17:37:04.781Z,3.03
2022-07-31T17:40:21.768Z,3.60
2022-07-31T17:43:49.937Z,3.57
2022-07-31T17:46:55.319Z,3.47
2022-07-31T17:50:01.109Z,3.63
2022-07-31T17:53:04.788Z,3.50
2022-07-31T17:56:12.586Z,3.30
2022-07-31T17:59:16.272Z,3.77
2022-07-31T18:02:20.786Z,3.20
2022-07-31T18:05:24.079Z,3.00
2022-07-31T18:08:29.379Z,4.00
2022-07-31T18:11:32.703Z,3.63
2022-07-31T18:14:35.870Z,3.60
2022-07-31T18:17:42.094Z,3.50
2022-07-31T18:20:45.312Z,3.40
2022-07-31T18:23:48.442Z,3.00
2022-07-31T18:26:53.853Z,3.07
2022-07-31T18:29:57.015Z,3.00
2022-07-31T18:33:01.580Z,3.40
2022-07-31T18:36:05.198Z,3.40
2022-07-31T18:39:08.588Z,3.40
2022-07-31T18:42:11.959Z,3.43
2022-07-31T18:45:15.259Z,3.10
2022-07-31T18:48:20.477Z,3.70
2022-07-31T18:51:24.023Z,3.47
2022-07-31T18:54:27.250Z,3.60
2022-07-31T18:57:30.661Z,3.50
2022-07-31T19:00:33.809Z,3.50
2022-07-31T19:03:38.725Z,3.63
2022-07-31T19:06:43.842Z,3.90
2022-07-31T19:09:47.189Z,3.50
2022-07-31T19:12:50.391Z,3.80
2022-07-31T19:15:53.939Z,3.60
2022-07-31T19:18:58.410Z,3.70
2022-07-31T19:22:03.491Z,4.20
2022-07-31T19:25:07.356Z,3.90
2022-07-31T19:28:11.603Z,4.17
2022-07-31T19:31:18.701Z,4.00
2022-07-31T19:34:23.657Z,3.97
2022-07-31T19:37:26.829Z,3.80
2022-07-31T19:40:30.435Z,3.90
2022-07-31T19:43:34.719Z,4.23
2022-07-31T19:46:37.823Z,4.27
2022-07-31T19:49:44.675Z,4.20
2022-07-31T19:52:48.081Z,4.27
2022-07-31T19:55:51.188Z,4.27
2022-07-31T19:58:54.480Z,4.37
2022-07-31T20:01:57.882Z,3.70
2022-07-31T20:05:02.492Z,3.77
2022-07-31T20:08:05.929Z,4.10
2022-07-31T20:11:09.192Z,4.40
2022-07-31T20:14:12.390Z,4.70
2022-07-31T20:17:15.582Z,4.77
2022-07-31T20:20:20.175Z,4.13
2022-07-31T20:23:23.453Z,4.07
2022-07-31T20:26:27.088Z,4.47
2022-07-31T20:29:30.214Z,4.60
2022-07-31T20:32:33.552Z,3.90
2022-07-31T20:35:48.134Z,4.23
2022-07-31T20:38:53.100Z,4.20
2022-07-31T20:41:56.227Z,3.60
2022-07-31T20:44:59.501Z,4.57
2022-07-31T20:48:02.601Z,4.30
2022-07-31T20:51:09.211Z,4.00
2022-07-31T20:54:12.388Z,4.00
2022-07-31T20:57:16.088Z,4.37
2022-07-31T21:00:19.588Z,4.43
2022-07-31T21:03:22.805Z,4.80
2022-07-31T21:06:27.383Z,4.13
2022-07-31T21:09:32.275Z,4.50
2022-07-31T21:12:35.467Z,3.87
2022-07-31T21:15:42.500Z,4.30
2022-07-31T21:18:48.089Z,4.40
2022-07-31T21:21:52.971Z,4.27
2022-07-31T21:24:56.649Z,4.27
2022-07-31T21:28:00.795Z,4.40
2022-07-31T21:31:05.461Z,4.40
2022-07-31T21:34:09.177Z,4.53
2022-07-31T21:37:16.259Z,4.90
2022-07-31T21:40:20.323Z,4.97
2022-07-31T21:43:23.967Z,4.30
2022-07-31T21:46:29.084Z,5.27
2022-07-31T21:49:35.184Z,4.10
2022-07-31T21:52:39.774Z,4.53
2022-07-31T21:55:42.990Z,5.47
2022-07-31T21:58:46.154Z,5.23
2022-07-31T22:01:57.700Z,4.57
2022-07-31T22:05:22.707Z,4.70
2022-07-31T22:08:27.494Z,5.10
2022-07-31T22:11:31.394Z,5.00
2022-07-31T22:14:34.536Z,4.63
2022-07-31T22:17:37.692Z,4.80
2022-07-31T22:20:41.639Z,5.00
2022-07-31T22:23:46.530Z,3.37
2022-07-31T22:27:05.852Z,4.60
2022-07-31T22:30:13.172Z,4.53
2022-07-31T22:33:16.699Z,4.80
2022-07-31T22:36:20.606Z,4.00
2022-07-31T22:39:26.489Z,4.10
2022-07-31T22:42:29.880Z,4.83
2022-07-31T22:45:33.184Z,4.70
2022-07-31T22:48:38.847Z,4.53
2022-07-31T22:51:46.234Z,4.67
2022-07-31T22:54:51.173Z,4.00
2022-07-31T22:57:54.323Z,5.10
2022-07-31T23:00:57.481Z,4.63
2022-07-31T23:04:00.603Z,5.00
2022-07-31T23:07:03.953Z,4.47
2022-07-31T23:10:12.376Z,4.40
2022-07-31T23:13:15.540Z,4.50
2022-07-31T23:16:18.632Z,4.53
2022-07-31T23:19:21.796Z,4.63
2022-07-31T23:22:30.887Z,4.40
2022-07-31T23:25:38.042Z,4.17
2022-07-31T23:28:41.354Z,4.03
2022-07-31T23:31:44.496Z,4.83
2022-07-31T23:34:47.711Z,4.30
2022-07-31T23:37:50.809Z,4.40
2022-07-31T23:40:56.465Z,5.17
2022-07-31T23:43:58.860Z,4.33
2022-07-31T23:47:01.994Z,4.50
2022-07-31T23:50:06.954Z,5.20
2022-07-31T23:53:10.846Z,4.23
2022-07-31T23:56:19.510Z,4.30
2022-07-31T23:59:22.991Z,4.47
